Time;durP1;ratioP1;P1;durP2;ratioP2;P2;SDS_P1;SDS_P2;PMS_P1;PMS_P2;Temp;Humidity;BMP_temperature;BMP_pressure;BME280_temperature;BME280_humidity;BME280_pressure;Samples;Min_cycle;Max_cycle;Signal;HPM_P1;HPM_P2
2023/06/21 00:01:43;;;;;;;11.50;9.00;;;;;;;21.44;100.00;100408.61;108009;1253;73442;-52
2023/06/21 00:04:15;;;;;;;9.30;8.30;;;;;;;21.43;100.00;100409.64;108771;1252;69845;-53
2023/06/21 00:06:50;;;;;;;9.20;8.30;;;;;;;21.41;100.00;100408.95;107873;1253;71451;-57
2023/06/21 00:09:30;;;;;;;9.10;7.80;;;;;;;21.38;100.00;100407.90;107730;1253;61086;-57
2023/06/21 00:12:02;;;;;;;10.20;8.20;;;;;;;21.35;100.00;100405.76;107374;1252;59076;-56
2023/06/21 00:14:41;;;;;;;9.50;8.20;;;;;;;21.34;100.00;100400.89;108383;1254;74418;-80
2023/06/21 00:17:08;;;;;;;13.10;9.00;;;;;;;21.35;100.00;100392.52;108615;1254;70450;-78
2023/06/21 00:19:35;;;;;;;9.10;8.20;;;;;;;21.35;100.00;100390.86;108081;1254;71778;-80
2023/06/21 00:22:02;;;;;;;8.70;7.80;;;;;;;21.36;100.00;100384.40;108662;1253;62518;-81
2023/06/21 00:24:29;;;;;;;8.90;7.40;;;;;;;21.35;100.00;100377.36;108653;1259;59902;-81
2023/06/21 00:26:56;;;;;;;7.80;7.00;;;;;;;21.32;100.00;100377.28;108706;1247;73716;-78
2023/06/21 00:29:23;;;;;;;7.60;6.10;;;;;;;21.28;100.00;100369.80;108705;1251;69501;-82
2023/06/21 00:31:50;;;;;;;7.60;6.40;;;;;;;21.24;99.91;100368.61;108800;1253;71003;-82
2023/06/21 00:34:17;;;;;;;7.20;5.90;;;;;;;21.20;99.59;100373.96;108609;1252;61917;-83
2023/06/21 00:36:44;;;;;;;7.90;6.00;;;;;;;21.15;99.35;100374.67;108879;1252;59541;-81
2023/06/21 00:39:11;;;;;;;7.30;5.50;;;;;;;21.11;99.12;100369.19;108843;1252;73448;-81
2023/06/21 00:41:39;;;;;;;7.00;5.50;;;;;;;21.09;98.87;100368.94;108525;1253;72960;-81
2023/06/21 00:44:08;;;;;;;7.00;5.80;;;;;;;21.07;98.85;100372.80;108877;1251;73235;-81
2023/06/21 00:46:35;;;;;;;7.30;6.00;;;;;;;21.06;98.67;100372.95;108658;1251;60619;-82
2023/06/21 00:49:02;;;;;;;7.70;5.70;;;;;;;21.05;98.49;100374.17;108763;1251;60822;-81
2023/06/21 00:51:29;;;;;;;6.40;5.50;;;;;;;21.05;98.49;100371.16;108656;1253;73378;-81
2023/06/21 00:53:56;;;;;;;6.50;5.60;;;;;;;21.05;98.28;100362.95;108968;1251;71365;-80
2023/06/21 00:56:23;;;;;;;9.20;5.80;;;;;;;21.05;98.33;100361.02;108949;1251;71570;-82
2023/06/21 00:58:50;;;;;;;7.30;5.90;;;;;;;21.05;98.22;100358.33;108999;1254;61392;-80
2023/06/21 01:01:17;;;;;;;8.30;6.20;;;;;;;21.05;98.19;100352.71;108477;1250;182878;-50
2023/06/21 01:03:44;;;;;;;6.50;5.30;;;;;;;21.01;98.04;100351.42;108817;1250;77134;-52
2023/06/21 01:06:36;;;;;;;6.70;5.40;;;;;;;21.01;97.94;100363.67;108932;1251;71141;-56
2023/06/21 01:09:34;;;;;;;6.60;5.40;;;;;;;20.95;98.20;100363.43;108891;1250;72672;-57
2023/06/21 01:12:40;;;;;;;6.10;5.50;;;;;;;20.88;98.32;100365.72;108822;1250;223824;-51
2023/06/21 01:15:15;;;;;;;6.80;5.50;;;;;;;20.82;98.58;100365.06;109145;1253;60990;-57
2023/06/21 01:17:48;;;;;;;7.60;5.00;;;;;;;20.79;98.61;100366.82;108476;1253;73465;-54
2023/06/21 01:20:24;;;;;;;6.40;5.20;;;;;;;20.75;98.90;100377.02;108380;1253;72647;-55
2023/06/21 01:23:09;;;;;;;5.80;5.20;;;;;;;20.72;98.98;100377.89;108749;1253;71212;-55
2023/06/21 01:26:07;;;;;;;6.20;5.00;;;;;;;20.68;99.10;100371.31;108879;1253;60864;-53
2023/06/21 01:28:55;;;;;;;6.40;5.20;;;;;;;20.66;99.14;100369.27;108527;1252;60442;-56
2023/06/21 01:31:25;;;;;;;9.10;5.20;;;;;;;20.63;99.14;100376.58;108262;1253;75377;-58
2023/06/21 01:34:01;;;;;;;7.00;5.00;;;;;;;20.59;99.44;100374.63;108697;1247;189067;-82
2023/06/21 01:36:28;;;;;;;6.50;5.20;;;;;;;20.55;99.75;100370.30;108419;1251;72659;-79
2023/06/21 01:38:59;;;;;;;7.70;5.40;;;;;;;20.52;99.68;100363.09;108003;1251;62318;-79
2023/06/21 01:41:26;;;;;;;6.70;5.30;;;;;;;20.49;99.91;100371.09;108710;1251;59613;-79
2023/06/21 01:43:56;;;;;;;7.80;5.40;;;;;;;20.46;99.91;100375.30;108767;1251;74045;-80
2023/06/21 01:46:26;;;;;;;7.90;5.20;;;;;;;20.42;100.00;100372.33;108923;1251;70249;-79
2023/06/21 01:48:54;;;;;;;7.10;5.30;;;;;;;20.40;100.00;100379.69;108705;1253;72373;-79
2023/06/21 01:51:22;;;;;;;6.80;5.20;;;;;;;20.36;100.00;100379.85;108703;1251;60440;-79
2023/06/21 01:53:49;;;;;;;7.30;5.40;;;;;;;20.34;100.00;100380.89;108913;1251;59397;-78
2023/06/21 01:56:17;;;;;;;6.80;5.20;;;;;;;20.30;100.00;100387.40;108496;1253;74005;-80
2023/06/21 01:58:46;;;;;;;6.20;5.00;;;;;;;20.26;100.00;100391.45;108145;1251;70594;-79
2023/06/21 02:01:14;;;;;;;5.50;4.70;;;;;;;20.22;100.00;100396.45;108959;1251;71246;-76
2023/06/21 02:03:52;;;;;;;6.50;4.60;;;;;;;20.18;100.00;100391.90;108853;1253;61691;-79
2023/06/21 02:06:26;;;;;;;6.20;4.90;;;;;;;20.13;100.00;100394.76;108572;1251;59108;-77
2023/06/21 02:08:53;;;;;;;8.60;5.20;;;;;;;20.10;100.00;100396.69;108744;1250;73876;-78
2023/06/21 02:11:22;;;;;;;6.90;5.10;;;;;;;20.06;100.00;100395.39;108556;1255;70618;-78
2023/06/21 02:13:49;;;;;;;5.50;4.80;;;;;;;20.04;100.00;100396.55;108528;1251;72734;-78
2023/06/21 02:16:15;;;;;;;7.50;4.70;;;;;;;20.03;100.00;100404.49;108027;1251;61317;-76
2023/06/21 02:18:42;;;;;;;7.70;5.40;;;;;;;20.01;100.00;100412.59;108080;1251;59420;-78
2023/06/21 02:21:11;;;;;;;7.80;5.10;;;;;;;19.99;100.00;100420.04;108213;1253;73396;-78
2023/06/21 02:23:38;;;;;;;8.50;5.10;;;;;;;19.95;100.00;100430.77;108625;1255;71731;-81
2023/06/21 02:26:05;;;;;;;7.40;4.90;;;;;;;19.91;100.00;100438.30;108292;1252;71775;-78
2023/06/21 02:28:32;;;;;;;8.60;4.80;;;;;;;19.87;100.00;100445.86;108655;1256;62055;-78
2023/06/21 02:30:59;;;;;;;7.90;5.20;;;;;;;19.84;100.00;100450.80;108802;1254;61263;-78
2023/06/21 02:33:26;;;;;;;8.70;5.50;;;;;;;19.80;100.00;100450.05;108569;1253;73158;-78
2023/06/21 02:35:53;;;;;;;10.30;5.20;;;;;;;19.79;100.00;100452.40;108278;1256;70989;-78
2023/06/21 02:38:20;;;;;;;8.20;5.00;;;;;;;19.78;100.00;100456.35;108271;1252;72744;-78
2023/06/21 02:40:47;;;;;;;7.50;5.70;;;;;;;19.77;100.00;100459.61;108529;1252;61696;-77
2023/06/21 02:43:14;;;;;;;6.80;5.30;;;;;;;19.75;100.00;100463.57;108385;1253;60979;-77
2023/06/21 02:45:41;;;;;;;7.80;5.50;;;;;;;19.75;100.00;100469.02;108151;1253;73534;-77
2023/06/21 02:48:08;;;;;;;8.30;5.30;;;;;;;19.74;100.00;100477.06;108410;1253;71250;-76
2023/06/21 02:50:35;;;;;;;9.00;5.30;;;;;;;19.73;100.00;100479.36;108685;1253;72483;-77
2023/06/21 02:53:03;;;;;;;7.10;5.20;;;;;;;19.71;100.00;100478.20;108621;1252;62051;-76
2023/06/21 02:55:30;;;;;;;8.20;5.50;;;;;;;19.70;100.00;100473.95;108238;1251;59151;-77
2023/06/21 02:57:58;;;;;;;7.90;5.30;;;;;;;19.70;100.00;100473.70;108701;1252;73426;-78
2023/06/21 03:00:31;;;;;;;8.70;5.70;;;;;;;19.71;100.00;100476.09;108342;1251;71184;-77
2023/06/21 03:03:01;;;;;;;9.20;5.90;;;;;;;19.72;100.00;100481.33;108085;1252;72838;-77
2023/06/21 03:05:33;;;;;;;8.40;6.20;;;;;;;19.72;100.00;100486.38;108473;1252;60798;-77
2023/06/21 03:08:03;;;;;;;9.10;6.40;;;;;;;19.73;100.00;100495.77;109002;1252;59247;-77
2023/06/21 03:10:32;;;;;;;9.00;7.00;;;;;;;19.75;100.00;100500.92;108713;1253;73335;-78
2023/06/21 03:12:59;;;;;;;8.50;6.70;;;;;;;19.80;100.00;100495.15;108578;1253;71665;-78
2023/06/21 03:15:26;;;;;;;10.00;6.90;;;;;;;19.85;100.00;100494.65;108743;1252;70422;-79
2023/06/21 03:17:54;;;;;;;8.70;6.90;;;;;;;19.89;100.00;100497.52;108504;1252;62624;-77
2023/06/21 03:20:22;;;;;;;8.40;6.60;;;;;;;19.92;100.00;100500.02;108400;1252;61189;-78
2023/06/21 03:22:49;;;;;;;9.70;6.40;;;;;;;19.95;100.00;100507.81;108232;1253;73347;-76
2023/06/21 03:25:16;;;;;;;9.20;6.90;;;;;;;20.00;100.00;100512.73;108173;1251;70984;-75
2023/06/21 03:27:43;;;;;;;8.30;7.10;;;;;;;20.03;100.00;100507.18;108716;1252;71534;-77
2023/06/21 03:30:12;;;;;;;9.60;7.00;;;;;;;20.04;100.00;100511.13;108348;1253;61399;-77
2023/06/21 03:32:46;;;;;;;9.00;7.00;;;;;;;20.05;100.00;100510.30;108720;1252;60698;-75
2023/06/21 03:35:14;;;;;;;7.80;6.90;;;;;;;20.06;100.00;100511.83;108482;1252;74641;-78
2023/06/21 03:37:42;;;;;;;9.00;7.30;;;;;;;20.07;100.00;100518.58;108222;1252;72588;-74
2023/06/21 03:40:13;;;;;;;10.20;7.20;;;;;;;20.07;100.00;100516.42;107955;1253;71977;-77
2023/06/21 03:42:44;;;;;;;12.70;7.70;;;;;;;20.07;100.00;100529.17;107902;1252;61655;-75
2023/06/21 03:45:11;;;;;;;8.40;6.90;;;;;;;20.07;100.00;100540.23;108492;1251;60196;-78
2023/06/21 03:47:39;;;;;;;9.90;7.50;;;;;;;20.07;100.00;100535.75;108680;1252;72401;-77
2023/06/21 03:50:08;;;;;;;8.80;7.10;;;;;;;20.06;100.00;100537.31;108595;1253;71341;-75
2023/06/21 03:52:35;;;;;;;9.90;7.80;;;;;;;20.07;100.00;100536.61;108682;1252;71689;-76
2023/06/21 03:55:02;;;;;;;10.40;7.90;;;;;;;20.07;100.00;100537.27;108522;1253;62000;-77
2023/06/21 03:57:29;;;;;;;10.70;7.80;;;;;;;20.08;100.00;100546.80;108556;1252;61806;-76
2023/06/21 03:59:56;;;;;;;11.60;7.70;;;;;;;20.09;100.00;100559.88;108433;1252;75656;-76
2023/06/21 04:02:24;;;;;;;9.30;8.00;;;;;;;20.10;100.00;100570.50;107960;1256;70100;-75
2023/06/21 04:04:51;;;;;;;9.90;7.40;;;;;;;20.12;100.00;100575.26;108675;1253;72615;-77
2023/06/21 04:07:19;;;;;;;11.00;8.60;;;;;;;20.12;100.00;100577.41;108775;1252;61420;-76
2023/06/21 04:09:48;;;;;;;11.00;7.60;;;;;;;20.13;100.00;100581.00;108234;1252;61097;-76
2023/06/21 04:12:15;;;;;;;10.50;8.60;;;;;;;20.15;100.00;100586.85;108394;1252;73468;-77
2023/06/21 04:14:42;;;;;;;9.40;8.10;;;;;;;20.17;100.00;100594.00;108190;1252;71234;-76
2023/06/21 04:17:09;;;;;;;9.20;7.70;;;;;;;20.21;100.00;100601.30;107801;1253;73672;-75
2023/06/21 04:19:35;;;;;;;10.30;8.40;;;;;;;20.25;100.00;100606.64;108065;1254;60823;-76
2023/06/21 04:22:02;;;;;;;10.60;7.60;;;;;;;20.28;100.00;100605.94;108085;1252;61202;-75
2023/06/21 04:24:31;;;;;;;9.50;8.00;;;;;;;20.32;100.00;100601.98;107904;1253;73516;-74
2023/06/21 04:26:58;;;;;;;10.60;7.70;;;;;;;20.35;100.00;100602.04;108291;1253;70932;-72
2023/06/21 04:29:26;;;;;;;8.80;7.60;;;;;;;20.38;100.00;100603.86;108552;1252;72674;-75
2023/06/21 04:31:53;;;;;;;13.30;8.20;;;;;;;20.41;100.00;100604.71;108656;1253;61783;-74
2023/06/21 04:34:20;;;;;;;10.70;7.60;;;;;;;20.43;100.00;100610.29;108369;1255;61112;-74
2023/06/21 04:36:47;;;;;;;10.20;7.10;;;;;;;20.44;100.00;100608.59;108062;1257;74755;-73
2023/06/21 04:39:17;;;;;;;118.50;106.80;;;;;;;20.47;100.00;100616.09;108268;1253;71217;-73
2023/06/21 04:41:47;;;;;;;307.30;273.90;;;;;;;20.52;100.00;100624.10;108093;1252;71499;-74
2023/06/21 04:44:16;;;;;;;11.00;8.90;;;;;;;20.56;100.00;100628.60;107946;1253;61256;-73
2023/06/21 04:46:46;;;;;;;28.40;22.80;;;;;;;20.58;100.00;100634.73;108817;1251;61141;-72
2023/06/21 04:49:17;;;;;;;18.40;14.20;;;;;;;20.64;100.00;100635.88;108247;1252;73458;-72
2023/06/21 04:51:44;;;;;;;71.00;53.00;;;;;;;20.70;99.89;100637.91;108541;1257;69889;-72
2023/06/21 04:54:11;;;;;;;10.10;7.00;;;;;;;20.79;98.26;100635.54;108386;1253;71751;-72
2023/06/21 04:56:38;;;;;;;10.00;6.80;;;;;;;20.88;98.18;100632.11;108226;1252;61365;-72
2023/06/21 04:59:08;;;;;;;8.20;5.90;;;;;;;20.93;97.54;100635.48;108359;1252;61710;-73
2023/06/21 05:01:35;;;;;;;7.80;5.60;;;;;;;20.98;97.19;100635.73;108366;1253;73349;-71
2023/06/21 05:04:02;;;;;;;7.60;5.70;;;;;;;21.00;96.82;100643.91;108409;1252;69832;-71
2023/06/21 05:06:28;;;;;;;6.80;5.40;;;;;;;21.01;96.16;100646.89;108551;1252;71897;-72
2023/06/21 05:08:56;;;;;;;6.80;5.20;;;;;;;21.02;95.39;100645.24;108568;1252;60788;-71
2023/06/21 05:11:23;;;;;;;6.30;4.90;;;;;;;21.07;94.74;100647.54;108307;1253;61257;-71
2023/06/21 05:13:50;;;;;;;5.80;4.80;;;;;;;21.09;93.84;100649.50;108810;1253;73764;-71
2023/06/21 05:16:17;;;;;;;6.40;4.80;;;;;;;21.14;93.52;100643.36;108586;1253;69986;-73
2023/06/21 05:18:45;;;;;;;5.50;4.20;;;;;;;21.17;92.59;100644.23;108246;1252;71661;-74
2023/06/21 05:21:12;;;;;;;6.90;3.90;;;;;;;21.21;91.89;100655.56;108554;1253;61769;-73
2023/06/21 05:23:38;;;;;;;6.90;3.70;;;;;;;21.26;91.25;100657.47;108208;1252;61381;-73
2023/06/21 05:26:05;;;;;;;6.80;4.20;;;;;;;21.32;90.58;100653.41;108457;1252;75481;-74
2023/06/21 05:28:32;;;;;;;5.80;3.80;;;;;;;21.37;90.07;100653.98;108317;1251;70322;-75
2023/06/21 05:30:58;;;;;;;5.10;3.70;;;;;;;21.40;88.67;100657.89;108287;1253;71012;-75
2023/06/21 05:33:25;;;;;;;6.10;3.60;;;;;;;21.43;88.90;100656.61;108438;1252;60460;-74
2023/06/21 05:35:52;;;;;;;5.40;3.20;;;;;;;21.51;88.65;100660.89;108588;1251;60264;-74
2023/06/21 05:38:19;;;;;;;6.30;3.50;;;;;;;21.53;87.25;100658.87;108089;1253;73436;-76
2023/06/21 05:40:46;;;;;;;4.50;3.40;;;;;;;21.56;86.69;100660.53;108394;1253;71801;-74
2023/06/21 05:43:12;;;;;;;6.70;3.30;;;;;;;21.65;86.91;100662.21;108013;1253;71114;-74
2023/06/21 05:45:39;;;;;;;5.90;3.20;;;;;;;21.69;85.92;100668.76;108446;1252;61279;-74
2023/06/21 05:48:06;;;;;;;7.10;3.50;;;;;;;21.72;85.90;100667.98;108384;1254;59499;-74
2023/06/21 05:50:33;;;;;;;5.10;3.20;;;;;;;21.76;85.68;100673.28;108621;1251;72695;-75
2023/06/21 05:53:00;;;;;;;6.60;3.10;;;;;;;21.80;84.87;100679.42;108474;1251;71136;-73
2023/06/21 05:55:27;;;;;;;6.60;3.40;;;;;;;21.82;84.54;100687.83;108109;1253;72817;-73
2023/06/21 05:57:54;;;;;;;6.30;3.40;;;;;;;21.88;84.62;100690.23;108401;1253;61256;-75
2023/06/21 06:00:21;;;;;;;8.10;3.80;;;;;;;21.92;84.72;100692.81;107961;1254;60353;-72
2023/06/21 06:02:48;;;;;;;4.90;3.30;;;;;;;21.94;84.15;100696.41;108636;1253;73449;-77
2023/06/21 06:05:16;;;;;;;5.20;3.40;;;;;;;21.97;84.18;100698.98;108105;1254;69740;-76
2023/06/21 06:07:43;;;;;;;4.80;3.50;;;;;;;22.00;83.69;100697.23;108432;1252;71314;-73
2023/06/21 06:10:10;;;;;;;5.10;3.30;;;;;;;22.05;83.79;100703.45;108297;1251;61645;-72
2023/06/21 06:12:37;;;;;;;5.00;3.20;;;;;;;22.09;83.17;100699.17;108598;1256;59635;-80
2023/06/21 06:15:05;;;;;;;6.40;3.30;;;;;;;22.12;82.67;100700.58;108263;1253;74750;-77
2023/06/21 06:17:32;;;;;;;6.70;3.40;;;;;;;22.17;82.92;100705.66;108093;1253;72183;-77
2023/06/21 06:20:05;;;;;;;6.10;3.50;;;;;;;22.24;82.74;100712.45;107691;1253;71265;-77
2023/06/21 06:22:37;;;;;;;5.00;3.50;;;;;;;22.33;82.67;100711.44;107842;1256;62012;-78
2023/06/21 06:25:04;;;;;;;5.60;3.30;;;;;;;22.45;82.78;100719.09;107857;1253;60473;-76
2023/06/21 06:27:31;;;;;;;5.30;3.00;;;;;;;22.56;81.65;100721.48;108578;1252;73508;-76
2023/06/21 06:29:58;;;;;;;4.70;3.10;;;;;;;22.61;79.94;100728.29;107951;1252;69680;-72
2023/06/21 06:32:27;;;;;;;4.30;3.30;;;;;;;22.68;79.34;100731.82;108830;1253;72718;-76
2023/06/21 06:34:54;;;;;;;5.10;3.60;;;;;;;22.75;79.67;100728.38;108670;1252;61358;-75
2023/06/21 06:37:23;;;;;;;6.70;3.20;;;;;;;22.82;79.39;100728.73;108210;1253;61282;-75
2023/06/21 06:39:57;;;;;;;4.20;3.40;;;;;;;22.88;78.63;100727.52;107691;1254;73464;-73
2023/06/21 06:42:24;;;;;;;5.50;3.30;;;;;;;22.94;78.36;100732.34;108227;1255;69721;-76
2023/06/21 06:44:52;;;;;;;4.10;3.20;;;;;;;23.05;77.70;100735.41;108251;1252;73441;-77
2023/06/21 06:47:19;;;;;;;3.70;3.10;;;;;;;23.10;76.68;100733.77;108470;1253;61941;-76
2023/06/21 06:49:46;;;;;;;5.70;3.10;;;;;;;23.20;77.18;100734.55;108261;1252;61266;-78
2023/06/21 06:52:13;;;;;;;3.20;2.60;;;;;;;23.30;76.35;100736.80;108520;1251;73720;-77
2023/06/21 06:54:40;;;;;;;5.50;3.00;;;;;;;23.31;74.99;100740.59;108421;1251;70993;-75
2023/06/21 06:57:07;;;;;;;4.40;3.10;;;;;;;23.34;74.25;100741.70;107860;1253;71805;-76
2023/06/21 06:59:41;;;;;;;3.40;2.60;;;;;;;23.37;73.46;100750.28;108274;1253;62073;-76
2023/06/21 07:02:08;;;;;;;3.50;2.40;;;;;;;23.40;71.88;100747.54;108346;1252;60984;-77
2023/06/21 07:04:35;;;;;;;4.40;3.00;;;;;;;23.42;72.78;100752.10;108330;1256;74912;-76
2023/06/21 07:07:06;;;;;;;4.70;2.90;;;;;;;23.42;73.82;100752.81;108608;1253;70991;-75
2023/06/21 07:09:33;;;;;;;4.40;3.00;;;;;;;23.44;73.91;100752.23;109137;1252;72368;-75
2023/06/21 07:12:01;;;;;;;4.50;2.90;;;;;;;23.50;74.24;100750.81;108206;1254;61414;-75
2023/06/21 07:14:28;;;;;;;6.20;3.70;;;;;;;23.62;73.72;100751.65;108417;1254;61161;-77
2023/06/21 07:16:55;;;;;;;5.10;3.20;;;;;;;23.66;72.52;100749.84;108144;1253;74752;-73
2023/06/21 07:19:22;;;;;;;4.90;3.30;;;;;;;23.73;73.03;100751.45;107889;1253;71094;-75
2023/06/21 07:21:49;;;;;;;12.10;4.90;;;;;;;23.72;72.09;100759.41;108612;1254;72670;-74
2023/06/21 07:24:16;;;;;;;6.80;3.70;;;;;;;23.64;71.75;100762.01;108161;1254;61145;-77
2023/06/21 07:26:43;;;;;;;4.30;3.00;;;;;;;23.56;71.52;100764.49;108248;1253;61234;-74
2023/06/21 07:29:10;;;;;;;4.10;3.00;;;;;;;23.51;71.63;100773.17;108171;1254;61228;-76
2023/06/21 07:31:37;;;;;;;10.20;4.80;;;;;;;23.48;71.85;100774.41;108614;1253;71192;-75
2023/06/21 07:34:07;;;;;;;5.60;3.40;;;;;;;23.51;71.91;100777.79;108715;1253;71713;-75
2023/06/21 07:36:37;;;;;;;4.10;3.20;;;;;;;23.58;72.03;100781.14;108290;1253;63967;-76
2023/06/21 07:39:08;;;;;;;4.20;3.00;;;;;;;23.66;71.41;100782.98;108097;1254;59609;-77
2023/06/21 07:41:35;;;;;;;5.60;2.90;;;;;;;23.73;70.75;100785.80;108628;1252;76417;-75
2023/06/21 07:44:02;;;;;;;4.80;3.10;;;;;;;23.80;70.70;100787.44;108431;1253;71237;-77
2023/06/21 07:46:29;;;;;;;4.90;2.90;;;;;;;23.94;70.57;100789.43;108165;1254;71561;-76
2023/06/21 07:48:56;;;;;;;3.90;3.10;;;;;;;24.00;69.35;100797.38;108040;1252;61740;-75
2023/06/21 07:51:23;;;;;;;3.80;3.20;;;;;;;24.07;68.70;100788.75;108171;1253;61183;-75
2023/06/21 07:53:50;;;;;;;5.40;3.20;;;;;;;24.13;68.55;100793.88;108545;1253;73232;-75
2023/06/21 07:56:17;;;;;;;3.50;2.90;;;;;;;24.20;68.31;100790.60;107942;1259;71217;-76
2023/06/21 07:58:46;;;;;;;4.30;3.00;;;;;;;24.30;68.15;100800.41;108177;1250;71562;-75
2023/06/21 08:01:13;;;;;;;5.30;3.40;;;;;;;24.43;67.55;100801.39;108394;1254;61450;-77
2023/06/21 08:03:40;;;;;;;4.40;3.00;;;;;;;24.58;66.48;100797.80;108674;1255;61243;-75
2023/06/21 08:06:07;;;;;;;5.10;3.20;;;;;;;24.70;65.55;100802.59;107598;1258;74694;-77
2023/06/21 08:08:34;;;;;;;4.60;3.40;;;;;;;24.87;66.21;100803.19;108112;1253;71247;-74
2023/06/21 08:11:01;;;;;;;7.00;3.40;;;;;;;25.03;65.71;100810.60;108671;1254;71611;-73
2023/06/21 08:13:29;;;;;;;5.20;3.50;;;;;;;25.04;65.65;100808.92;108023;1253;61275;-74
2023/06/21 08:15:56;;;;;;;4.10;3.30;;;;;;;25.12;64.86;100802.08;108454;1254;61790;-73
2023/06/21 08:18:22;;;;;;;4.20;3.30;;;;;;;25.17;63.09;100804.82;108224;1254;74492;-75
2023/06/21 08:20:49;;;;;;;4.30;3.40;;;;;;;25.22;63.03;100801.26;108371;1253;69816;-74
2023/06/21 08:23:16;;;;;;;4.30;3.90;;;;;;;25.25;63.61;100797.02;108374;1253;71508;-76
2023/06/21 08:25:45;;;;;;;6.50;3.50;;;;;;;25.35;63.26;100799.52;108138;1253;61635;-75
2023/06/21 08:28:13;;;;;;;4.70;3.40;;;;;;;25.43;63.04;100790.58;108218;1254;62371;-78
2023/06/21 08:30:39;;;;;;;4.80;3.40;;;;;;;25.47;62.10;100793.61;107949;1254;74718;-75
2023/06/21 08:33:07;;;;;;;4.70;3.40;;;;;;;25.50;62.18;100789.60;108188;1254;69972;-76
2023/06/21 08:35:39;;;;;;;5.20;3.80;;;;;;;25.54;62.08;100792.24;108683;1254;72679;-77
2023/06/21 08:38:06;;;;;;;3.70;3.10;;;;;;;25.55;61.16;100793.77;108114;1253;60763;-76
2023/06/21 08:40:57;;;;;;;5.40;3.40;;;;;;;25.48;61.33;100796.48;108044;1254;59390;-74
2023/06/21 08:43:24;;;;;;;5.20;3.00;;;;;;;25.50;61.21;100801.60;107731;1254;72387;-74
2023/06/21 08:45:51;;;;;;;3.50;2.90;;;;;;;25.51;59.76;100801.00;108118;1253;70083;-75
2023/06/21 08:48:19;;;;;;;3.50;3.00;;;;;;;25.56;59.19;100794.05;108175;1252;72720;-76
2023/06/21 08:50:47;;;;;;;4.30;3.40;;;;;;;25.69;59.97;100798.27;108042;1254;59820;-74
2023/06/21 08:53:25;;;;;;;4.80;3.20;;;;;;;25.84;60.74;100801.77;108652;1256;62885;-73
2023/06/21 08:55:52;;;;;;;4.00;3.30;;;;;;;25.89;60.34;100800.27;108319;1254;73155;-75
2023/06/21 08:58:25;;;;;;;3.70;3.00;;;;;;;25.98;58.59;100812.71;107883;1254;70730;-75
2023/06/21 09:00:53;;;;;;;3.00;2.50;;;;;;;26.02;57.23;100817.16;107673;1252;73399;-75
2023/06/21 09:03:27;;;;;;;4.00;2.70;;;;;;;26.07;56.61;100824.66;108453;1254;59369;-74
2023/06/21 09:06:03;;;;;;;3.80;3.00;;;;;;;26.15;56.63;100827.12;108226;1254;61224;-74
2023/06/21 09:08:32;;;;;;;6.70;3.30;;;;;;;26.32;56.68;100831.27;108731;1254;74809;-75
2023/06/21 09:10:59;;;;;;;4.10;3.10;;;;;;;26.43;57.10;100828.39;108441;1254;70246;-76
2023/06/21 09:13:27;;;;;;;5.20;3.00;;;;;;;26.58;55.93;100828.25;108673;1254;71444;-77
2023/06/21 09:15:58;;;;;;;4.80;3.30;;;;;;;26.68;55.07;100827.77;108215;1252;61352;-75
2023/06/21 09:18:27;;;;;;;3.20;2.60;;;;;;;26.82;54.09;100822.05;107588;1254;59168;-75
2023/06/21 09:20:54;;;;;;;4.50;3.20;;;;;;;26.92;54.99;100823.62;107904;1254;72900;-75
2023/06/21 09:23:21;;;;;;;3.90;3.20;;;;;;;26.95;55.02;100826.60;108188;1254;71201;-76
2023/06/21 09:25:48;;;;;;;3.70;3.30;;;;;;;26.95;53.87;100831.17;108185;1254;73068;-73
2023/06/21 09:28:15;;;;;;;5.30;3.40;;;;;;;26.85;54.17;100822.63;108306;1254;61268;-73
2023/06/21 09:30:41;;;;;;;4.90;3.30;;;;;;;26.84;54.45;100830.52;108965;1252;61237;-73
2023/06/21 09:33:10;;;;;;;7.30;3.20;;;;;;;26.86;54.33;100828.34;108250;1252;74793;-76
2023/06/21 09:35:41;;;;;;;5.20;3.60;;;;;;;26.85;55.02;100839.93;108405;1254;70031;-74
2023/06/21 09:38:35;;;;;;;4.80;3.30;;;;;;;26.68;54.78;100845.14;108229;1255;71530;-75
2023/06/21 09:41:06;;;;;;;4.80;3.00;;;;;;;26.58;55.11;100842.23;108347;1253;61263;-74
2023/06/21 09:43:40;;;;;;;4.50;3.00;;;;;;;26.67;55.25;100850.04;107875;1252;61324;-77
2023/06/21 09:46:09;;;;;;;8.00;3.40;;;;;;;26.67;54.80;100843.52;108308;1253;76189;-74
2023/06/21 09:48:37;;;;;;;5.20;4.00;;;;;;;26.59;55.08;100850.94;108481;1253;70535;-76
2023/06/21 09:51:06;;;;;;;6.50;3.60;;;;;;;26.60;55.09;100846.73;108267;1253;72963;-75
2023/06/21 09:53:33;;;;;;;4.90;3.60;;;;;;;26.52;54.73;100852.02;108175;1254;62306;-75
2023/06/21 09:56:01;;;;;;;8.90;3.60;;;;;;;26.42;54.27;100855.05;107989;1254;61169;-75
2023/06/21 09:58:29;;;;;;;7.00;3.80;;;;;;;26.31;53.99;100858.73;107811;1252;73330;-73
2023/06/21 10:00:59;;;;;;;6.70;4.00;;;;;;;26.39;53.93;100857.29;107875;1256;72687;-73
2023/06/21 10:03:27;;;;;;;5.10;4.00;;;;;;;26.46;54.15;100859.02;107841;1253;71326;-77
2023/06/21 10:05:56;;;;;;;4.50;3.60;;;;;;;26.56;53.82;100859.73;108227;1251;61552;-75
2023/06/21 10:08:29;;;;;;;6.60;4.30;;;;;;;26.65;54.09;100859.13;108732;1253;60731;-73
2023/06/21 10:10:55;;;;;;;5.30;4.00;;;;;;;26.85;52.82;100869.39;108413;1253;74924;-75
2023/06/21 10:13:25;;;;;;;5.60;4.50;;;;;;;26.87;51.63;100875.31;108890;1252;70259;-76
2023/06/21 10:15:53;;;;;;;5.40;4.30;;;;;;;26.86;51.64;100870.02;108203;1256;71469;-74
2023/06/21 10:18:20;;;;;;;5.70;4.50;;;;;;;26.85;51.43;100861.33;108246;1253;61192;-75
2023/06/21 10:20:53;;;;;;;6.30;4.50;;;;;;;26.95;52.35;100858.45;107700;1254;61362;-78
2023/06/21 10:23:22;;;;;;;4.90;4.40;;;;;;;27.09;51.85;100865.34;108252;1252;73282;-78
2023/06/21 10:25:51;;;;;;;5.30;4.60;;;;;;;27.18;51.54;100870.79;108189;1252;70095;-75
2023/06/21 10:28:20;;;;;;;5.90;5.30;;;;;;;27.26;51.33;100871.79;108626;1252;74333;-75
2023/06/21 10:30:50;;;;;;;6.50;5.50;;;;;;;27.34;51.00;100868.58;108690;1251;61276;-75
2023/06/21 10:33:17;;;;;;;7.80;5.80;;;;;;;27.36;50.36;100875.71;108423;1252;61709;-77
2023/06/21 10:35:48;;;;;;;7.50;5.70;;;;;;;27.36;50.05;100877.62;108126;1254;73487;-81
2023/06/21 10:38:25;;;;;;;6.10;5.50;;;;;;;27.31;50.44;100877.31;108127;1253;70434;-77
2023/06/21 10:40:54;;;;;;;7.00;5.90;;;;;;;27.30;51.09;100872.48;108639;1254;71533;-76
2023/06/21 10:43:21;;;;;;;6.00;5.40;;;;;;;27.36;51.03;100883.88;108631;1251;60609;-74
2023/06/21 10:45:50;;;;;;;6.90;6.20;;;;;;;27.42;50.47;100880.23;108308;1255;61161;-75
2023/06/21 10:48:17;;;;;;;6.70;6.00;;;;;;;27.50;50.39;100881.05;108518;1253;74658;-75
2023/06/21 10:50:45;;;;;;;6.10;5.50;;;;;;;27.60;50.75;100889.14;108888;1252;69946;-76
2023/06/21 10:53:17;;;;;;;7.60;6.00;;;;;;;27.69;50.64;100883.84;108776;1253;71519;-75
2023/06/21 10:55:49;;;;;;;8.40;6.50;;;;;;;27.76;49.86;100887.00;108380;1254;59343;-76
2023/06/21 10:58:16;;;;;;;7.30;6.10;;;;;;;27.73;50.28;100893.73;108565;1254;59195;-78
2023/06/21 11:00:47;;;;;;;8.50;6.50;;;;;;;27.78;50.41;100890.31;108045;1252;73767;-75
2023/06/21 11:03:16;;;;;;;6.40;5.70;;;;;;;27.83;49.92;100894.02;107863;1252;70066;-75
2023/06/21 11:05:44;;;;;;;7.70;6.10;;;;;;;27.84;49.73;100888.48;108103;1254;71470;-75
2023/06/21 11:08:14;;;;;;;8.70;6.10;;;;;;;27.94;49.67;100896.81;108557;1252;61321;-74
2023/06/21 11:10:49;;;;;;;6.70;5.80;;;;;;;28.05;49.70;100894.20;108280;1253;61515;-78
2023/06/21 11:13:32;;;;;;;6.60;5.40;;;;;;;28.12;48.87;100897.56;108620;1252;72461;-78
2023/06/21 11:16:10;;;;;;;6.80;5.90;;;;;;;28.09;48.86;100903.58;108466;1254;71653;-78
2023/06/21 11:18:37;;;;;;;9.10;5.90;;;;;;;28.14;49.23;100901.90;108574;1252;71494;-76
2023/06/21 11:21:05;;;;;;;7.30;5.80;;;;;;;28.22;49.47;100911.75;108083;1252;59394;-74
2023/06/21 11:23:48;;;;;;;6.20;5.60;;;;;;;28.33;48.83;100914.98;108626;1252;61167;-77